Time;durP1;ratioP1;P1;durP2;ratioP2;P2;SDS_P1;SDS_P2;PMS_P1;PMS_P2;Temp;Humidity;BMP_temperature;BMP_pressure;BME280_temperature;BME280_humidity;BME280_pressure;Samples;Min_cycle;Max_cycle;Signal;HPM_P1;HPM_P2
2022/05/31 00:00:14;;;;;;;;;3.00;3.00;;;;;;;;6189747;22;47347;-78
2022/05/31 00:02:39;;;;;;;;;3.00;3.00;;;;;;;;6188134;22;45460;-78
2022/05/31 00:05:19;;;;;;;;;;;;;;;;;;;;;
2022/05/31 00:07:52;;;;;;;;;3.00;3.00;;;;;;;;6215851;22;71763;-78
2022/05/31 00:10:33;;;;;;;;;3.00;2.00;;;;;;;;6216793;22;46942;-77
2022/05/31 00:12:58;;;;;;;;;2.25;2.00;;;;;;;;6216728;22;45356;-78
2022/05/31 00:15:24;;;;;;;;;5.25;3.75;;;;;;;;6216723;22;45238;-78
2022/05/31 00:18:19;;;;;;;;;;;;;;;;;;;;;
2022/05/31 00:20:44;;;;;;;;;4.50;3.75;;;;;;;;6210348;22;76252;-78
2022/05/31 00:23:12;;;;;;;;;3.75;3.75;;;;;;;;6190183;22;45440;-78
2022/05/31 00:25:55;;;;;;;;;3.25;3.25;;;;;;;;6216858;22;45253;-78
2022/05/31 00:28:26;;;;;;;;;3.75;3.75;;;;;;;;6183774;23;46314;-78
2022/05/31 00:30:54;;;;;;;;;4.25;3.00;;;;;;;;6186573;23;46376;-78
2022/05/31 00:33:22;;;;;;;;;5.50;3.75;;;;;;;;6186421;22;45610;-78
2022/05/31 00:38:44;;;;;;;;;7.00;6.00;;;;;;;;6179800;23;45688;-79
2022/05/31 00:41:24;;;;;;;;;5.00;5.00;;;;;;;;6184473;23;47307;-79
2022/05/31 00:43:56;;;;;;;;;5.25;4.50;;;;;;;;6186493;23;45379;-79
2022/05/31 00:46:38;;;;;;;;;3.75;3.75;;;;;;;;6184589;23;45390;-79
2022/05/31 00:49:09;;;;;;;;;5.50;3.75;;;;;;;;6184026;22;45453;-79
2022/05/31 00:51:57;;;;;;;;;5.00;4.50;;;;;;;;6183645;23;47320;-79
2022/05/31 00:54:24;;;;;;;;;3.00;3.00;;;;;;;;6186565;23;45209;-79
2022/05/31 00:56:57;;;;;;;;;3.00;3.00;;;;;;;;6186816;22;45174;-79
2022/05/31 00:59:26;;;;;;;;;4.00;3.50;;;;;;;;6186353;22;45084;-79
2022/05/31 01:01:53;;;;;;;;;6.00;4.50;;;;;;;;6184521;23;47135;-79
2022/05/31 01:04:25;;;;;;;;;3.00;3.00;;;;;;;;6184533;23;45837;-79
2022/05/31 01:06:51;;;;;;;;;4.75;4.00;;;;;;;;6186641;23;45405;-79
2022/05/31 01:12:06;;;;;;;;;3.50;3.00;;;;;;;;6186159;23;47155;-79
2022/05/31 01:14:38;;;;;;;;;2.00;2.00;;;;;;;;6184433;23;45278;-79
2022/05/31 01:17:09;;;;;;;;;4.00;4.00;;;;;;;;6184794;23;45413;-79
2022/05/31 01:22:21;;;;;;;;;3.00;3.00;;;;;;;;6186250;23;45774;-79
2022/05/31 01:25:07;;;;;;;;;4.00;2.75;;;;;;;;6184348;23;45385;-79
2022/05/31 01:27:37;;;;;;;;;2.00;2.00;;;;;;;;6137973;23;45377;-79
2022/05/31 01:30:07;;;;;;;;;3.75;1.75;;;;;;;;6186122;23;45203;-79
2022/05/31 01:32:37;;;;;;;;;4.00;4.00;;;;;;;;6186233;22;46428;-78
2022/05/31 01:35:09;;;;;;;;;3.50;3.50;;;;;;;;6185215;22;45237;-79
2022/05/31 01:37:45;;;;;;;;;3.75;3.75;;;;;;;;6186125;22;45240;-79
2022/05/31 01:40:14;;;;;;;;;3.75;2.00;;;;;;;;6186371;22;45257;-79
2022/05/31 01:42:42;;;;;;;;;3.00;3.00;;;;;;;;6185952;23;46187;-79
2022/05/31 01:45:14;;;;;;;;;2.50;2.50;;;;;;;;6185647;22;45385;-79
2022/05/31 01:47:41;;;;;;;;;2.50;2.25;;;;;;;;6186076;23;45407;-79
2022/05/31 01:50:10;;;;;;;;;3.50;3.50;;;;;;;;6186255;22;45264;-79
2022/05/31 01:52:37;;;;;;;;;2.00;2.00;;;;;;;;6185746;23;45356;-79
2022/05/31 01:55:03;;;;;;;;;3.75;2.00;;;;;;;;6186439;23;45257;-79
2022/05/31 01:57:37;;;;;;;;;3.00;2.00;;;;;;;;6186048;22;45250;-79
2022/05/31 02:00:05;;;;;;;;;3.00;3.00;;;;;;;;6185989;22;45267;-79
2022/05/31 02:02:30;;;;;;;;;2.00;2.00;;;;;;;;6186606;22;45573;-78
2022/05/31 02:05:00;;;;;;;;;1.00;1.00;;;;;;;;6187433;22;45386;-79
2022/05/31 02:07:29;;;;;;;;;2.00;2.00;;;;;;;;6186725;23;45181;-78
2022/05/31 02:10:05;;;;;;;;;;;;;;;;;;;;;
2022/05/31 02:12:33;;;;;;;;;2.25;2.25;;;;;;;;6185835;23;75465;-79
2022/05/31 02:15:01;;;;;;;;;4.00;2.25;;;;;;;;6184866;23;45410;-79
2022/05/31 02:17:27;;;;;;;;;4.25;3.00;;;;;;;;6186997;22;45344;-78
2022/05/31 02:19:55;;;;;;;;;2.50;2.00;;;;;;;;6186265;23;45289;-79
2022/05/31 02:22:27;;;;;;;;;3.75;3.00;;;;;;;;6184982;23;46905;-78
2022/05/31 02:24:54;;;;;;;;;2.00;1.75;;;;;;;;6187539;22;45547;-79
2022/05/31 02:27:20;;;;;;;;;2.00;2.00;;;;;;;;6191550;22;45185;-79
2022/05/31 02:29:50;;;;;;;;;1.50;1.50;;;;;;;;6217103;22;45217;-79
2022/05/31 02:32:16;;;;;;;;;3.25;2.25;;;;;;;;6217616;22;45428;-79
2022/05/31 02:34:59;;;;;;;;;2.50;2.50;;;;;;;;6190160;22;45254;-79
2022/05/31 02:37:32;;;;;;;;;2.50;1.25;;;;;;;;6189318;22;45483;-78
2022/05/31 02:39:58;;;;;;;;;3.00;2.00;;;;;;;;6190143;22;45304;-79
2022/05/31 02:42:25;;;;;;;;;3.00;1.25;;;;;;;;6217333;22;45894;-78
2022/05/31 02:45:00;;;;;;;;;2.25;2.00;;;;;;;;6217345;22;45458;-78
2022/05/31 02:47:26;;;;;;;;;2.50;2.00;;;;;;;;6217395;22;45321;-78
2022/05/31 02:49:51;;;;;;;;;2.00;2.00;;;;;;;;6217524;22;45244;-78
2022/05/31 02:52:16;;;;;;;;;2.00;2.00;;;;;;;;6217588;22;45247;-79
2022/05/31 02:54:42;;;;;;;;;2.00;2.00;;;;;;;;6217988;22;45279;-79
2022/05/31 02:57:10;;;;;;;;;2.00;2.00;;;;;;;;6217881;22;45238;-79
2022/05/31 02:59:35;;;;;;;;;2.75;2.75;;;;;;;;6217342;22;45467;-79
2022/05/31 03:02:03;;;;;;;;;2.00;2.00;;;;;;;;6217155;22;45356;-79
2022/05/31 03:04:28;;;;;;;;;5.00;2.00;;;;;;;;6217191;22;45439;-79
2022/05/31 03:06:54;;;;;;;;;2.00;2.00;;;;;;;;6217605;22;45320;-79
2022/05/31 03:09:19;;;;;;;;;3.00;2.00;;;;;;;;6190435;22;45396;-79
2022/05/31 03:12:07;;;;;;;;;4.00;2.50;;;;;;;;6189868;22;46013;-79
2022/05/31 03:14:35;;;;;;;;;4.00;3.00;;;;;;;;6216713;22;45404;-78
2022/05/31 03:17:15;;;;;;;;;2.00;2.00;;;;;;;;6190382;22;45495;-78
2022/05/31 03:19:46;;;;;;;;;2.00;2.00;;;;;;;;6217188;22;45171;-79
2022/05/31 03:22:16;;;;;;;;;5.50;3.00;;;;;;;;6217352;22;46437;-78
2022/05/31 03:24:50;;;;;;;;;1.00;1.00;;;;;;;;6216900;22;45456;-78
2022/05/31 03:27:16;;;;;;;;;4.00;3.25;;;;;;;;6216509;22;45159;-79
2022/05/31 03:29:45;;;;;;;;;6.50;4.00;;;;;;;;6189879;22;45322;-79
2022/05/31 03:32:21;;;;;;;;;;;;;;;;;;;;;
2022/05/31 03:34:46;;;;;;;;;4.00;4.00;;;;;;;;6215781;22;72957;-79
2022/05/31 03:37:12;;;;;;;;;7.00;4.00;;;;;;;;6216665;22;45338;-78
2022/05/31 03:39:37;;;;;;;;;5.50;3.25;;;;;;;;6189685;22;45528;-78
2022/05/31 03:42:05;;;;;;;;;7.25;4.25;;;;;;;;6216863;22;45378;-78
2022/05/31 03:44:30;;;;;;;;;11.50;6.00;;;;;;;;6189892;22;45383;-78
2022/05/31 03:46:57;;;;;;;;;8.00;6.33;;;;;;;;6217264;22;45269;-78
2022/05/31 03:49:30;;;;;;;;;5.00;5.00;;;;;;;;6189138;22;46041;-79
2022/05/31 03:51:55;;;;;;;;;5.25;4.25;;;;;;;;6189811;22;48142;-78
2022/05/31 03:54:21;;;;;;;;;8.25;5.00;;;;;;;;6217270;22;45498;-78
2022/05/31 03:56:48;;;;;;;;;8.75;6.25;;;;;;;;6217466;22;45165;-78
2022/05/31 03:59:16;;;;;;;;;3.50;3.50;;;;;;;;6216354;22;45396;-78
2022/05/31 04:01:41;;;;;;;;;4.00;4.00;;;;;;;;6217267;22;45399;-78
2022/05/31 04:04:14;;;;;;;;;5.75;4.75;;;;;;;;6217157;22;45360;-79
2022/05/31 04:06:41;;;;;;;;;4.75;4.75;;;;;;;;6189984;22;45464;-79
2022/05/31 04:09:09;;;;;;;;;5.75;4.50;;;;;;;;6216922;22;45372;-79
2022/05/31 04:11:34;;;;;;;;;5.25;5.00;;;;;;;;6216921;22;46293;-79
2022/05/31 04:14:04;;;;;;;;;6.25;5.00;;;;;;;;6189126;22;45345;-79
2022/05/31 04:16:30;;;;;;;;;4.75;4.00;;;;;;;;6216145;22;45302;-78
2022/05/31 04:18:55;;;;;;;;;5.00;4.00;;;;;;;;6216448;22;45262;-79
2022/05/31 04:21:21;;;;;;;;;4.00;4.00;;;;;;;;6189867;22;47700;-79
2022/05/31 04:23:59;;;;;;;;;5.50;5.25;;;;;;;;6189131;22;45711;-79
2022/05/31 04:26:58;;;;;;;;;;;;;;;;;;;;;
2022/05/31 04:29:23;;;;;;;;;7.75;5.00;;;;;;;;6199158;22;71782;-78
2022/05/31 04:32:08;;;;;;;;;4.00;4.00;;;;;;;;6188586;22;48025;-78
2022/05/31 04:35:06;;;;;;;;;;;;;;;;;;;;;
2022/05/31 04:37:49;;;;;;;;;5.00;3.75;;;;;;;;6215309;22;68753;-78
2022/05/31 04:40:15;;;;;;;;;3.00;1.50;;;;;;;;6216505;22;45192;-79
2022/05/31 04:42:42;;;;;;;;;3.75;3.50;;;;;;;;6189125;22;46895;-78
2022/05/31 04:45:12;;;;;;;;;8.75;4.00;;;;;;;;6215719;22;45332;-79
2022/05/31 04:47:38;;;;;;;;;5.50;5.50;;;;;;;;6216952;22;45146;-78
2022/05/31 04:50:03;;;;;;;;;8.00;7.00;;;;;;;;6216028;22;45206;-78
2022/05/31 04:52:31;;;;;;;;;7.25;7.00;;;;;;;;6216654;22;46262;-78
2022/05/31 04:54:59;;;;;;;;;11.00;10.75;;;;;;;;6189515;22;45534;-78
2022/05/31 04:57:24;;;;;;;;;12.25;11.25;;;;;;;;6216398;22;45351;-78
2022/05/31 04:59:49;;;;;;;;;11.50;11.50;;;;;;;;6216582;22;45370;-76
2022/05/31 05:02:15;;;;;;;;;8.00;5.33;;;;;;;;6216629;22;45268;-78
2022/05/31 05:04:40;;;;;;;;;8.25;6.25;;;;;;;;6213804;22;45376;-77
2022/05/31 05:07:05;;;;;;;;;6.25;5.00;;;;;;;;6214530;22;45341;-78
2022/05/31 05:09:30;;;;;;;;;4.67;4.00;;;;;;;;6187221;22;45373;-77
2022/05/31 05:25:50;;;;;;;;;5.00;3.00;;;;;;;;6231058;22;45660;-78
2022/05/31 05:39:06;;;;;;;;;;;;;;;;;;;;;
2022/05/31 05:41:41;;;;;;;;;;;;;;;;;;;;;
2022/05/31 05:44:07;;;;;;;;;4.00;3.00;;;;;;;;6241411;22;75762;-78
2022/05/31 05:46:33;;;;;;;;;6.75;5.00;;;;;;;;6244723;22;45804;-78
2022/05/31 05:48:58;;;;;;;;;5.75;4.00;;;;;;;;6225801;22;45479;-78
2022/05/31 05:51:25;;;;;;;;;4.75;4.00;;;;;;;;6214364;22;45238;-78
2022/05/31 05:53:51;;;;;;;;;5.00;5.00;;;;;;;;6215733;22;45439;-78
2022/05/31 05:56:17;;;;;;;;;6.50;4.00;;;;;;;;6213852;22;45507;-78
2022/05/31 05:58:45;;;;;;;;;2.50;2.50;;;;;;;;6213040;22;45261;-78
2022/05/31 06:01:33;;;;;;;;;6.00;5.00;;;;;;;;6186249;22;45443;-78
2022/05/31 06:04:04;;;;;;;;;7.00;5.50;;;;;;;;6185921;22;46376;-78
2022/05/31 06:06:31;;;;;;;;;7.25;5.00;;;;;;;;6184843;22;45430;-79
2022/05/31 06:08:59;;;;;;;;;7.00;4.00;;;;;;;;6210923;22;45499;-79
2022/05/31 06:11:27;;;;;;;;;5.00;4.00;;;;;;;;6215767;22;45251;-79
2022/05/31 06:13:55;;;;;;;;;7.00;4.50;;;;;;;;6215388;22;45194;-79
2022/05/31 06:16:26;;;;;;;;;4.75;4.75;;;;;;;;6216249;22;45465;-79
2022/05/31 06:19:15;;;;;;;;;8.00;5.00;;;;;;;;6188441;22;45195;-79
2022/05/31 06:21:43;;;;;;;;;6.50;5.00;;;;;;;;6216202;22;45417;-78
2022/05/31 06:24:08;;;;;;;;;5.00;4.00;;;;;;;;6214675;22;46291;-79
2022/05/31 06:26:34;;;;;;;;;5.75;5.75;;;;;;;;6188516;22;45924;-79
2022/05/31 06:29:03;;;;;;;;;6.75;5.25;;;;;;;;6188416;22;45225;-79
2022/05/31 06:31:28;;;;;;;;;8.25;7.25;;;;;;;;6215284;22;45170;-79
2022/05/31 06:33:54;;;;;;;;;6.25;6.00;;;;;;;;6188285;22;46112;-79
2022/05/31 16:03:13;;;;;;;;;2.75;2.75;;;;;;;;6244498;22;45409;-78
2022/05/31 16:06:01;;;;;;;;;4.00;3.00;;;;;;;;6241236;22;45260;-78
2022/05/31 16:08:49;;;;;;;;;7.50;5.00;;;;;;;;6264483;22;45531;-78
2022/05/31 16:14:26;;;;;;;;;;;;;;;;;;;;;
2022/05/31 16:23:38;;;;;;;;;;;;;;;;;;;;;
2022/05/31 19:25:01;;;;;;;;;;;;;;;;;;;;;
2022/05/31 19:43:58;;;;;;;;;;;;;;;;;;;;;
2022/05/31 19:46:46;;;;;;;;;8.00;4.75;;;;;;;;6267749;22;67811;-78
2022/05/31 19:52:56;;;;;;;;;;;;;;;;;;;;;
2022/05/31 19:58:19;;;;;;;;;7.00;5.00;;;;;;;;6228986;22;45369;-78
2022/05/31 20:00:45;;;;;;;;;7.00;5.00;;;;;;;;6246568;22;45342;-77
2022/05/31 20:03:13;;;;;;;;;6.00;5.25;;;;;;;;6219578;22;46099;-79
2022/05/31 20:38:06;;;;;;;;;;;;;;;;;;;;;
2022/05/31 20:40:52;;;;;;;;;2.00;2.00;;;;;;;;6215148;22;73094;-79
2022/05/31 21:28:33;;;;;;;;;2.25;2.25;;;;;;;;6229034;22;45294;-77
